Time;durP1;ratioP1;P1;durP2;ratioP2;P2;SDS_P1;SDS_P2;PMS_P1;PMS_P2;Temp;Humidity;BMP_temperature;BMP_pressure;BME280_temperature;BME280_humidity;BME280_pressure;Samples;Min_cycle;Max_cycle;Signal;HPM_P1;HPM_P2
2021/03/06 00:00:21;;;;;;;3.88;1.75;;;;;;;;;;5093112;28;20517;-55
2021/03/06 00:02:49;;;;;;;12.07;1.90;;;;;;;;;;5093221;28;20038;-55
2021/03/06 00:05:16;;;;;;;3.63;1.73;;;;;;;;;;5093072;28;20478;-55
2021/03/06 00:07:43;;;;;;;3.58;1.70;;;;;;;;;;5093315;28;20031;-55
2021/03/06 00:10:12;;;;;;;2.95;1.60;;;;;;;;;;5092903;28;20111;-55
2021/03/06 00:12:46;;;;;;;2.78;1.35;;;;;;;;;;5093012;28;20095;-55
2021/03/06 00:15:15;;;;;;;5.38;1.48;;;;;;;;;;5092933;28;20020;-55
2021/03/06 00:17:42;;;;;;;4.68;2.05;;;;;;;;;;5092839;28;20028;-55
2021/03/06 00:20:09;;;;;;;6.60;2.50;;;;;;;;;;5092913;28;20086;-55
2021/03/06 00:22:36;;;;;;;4.45;2.35;;;;;;;;;;5092909;28;20032;-55
2021/03/06 00:25:05;;;;;;;7.78;2.55;;;;;;;;;;5074869;28;20116;-55
2021/03/06 00:27:32;;;;;;;14.25;2.90;;;;;;;;;;5092788;28;20020;-55
2021/03/06 00:30:22;;;;;;;5.05;2.97;;;;;;;;;;5093217;28;20072;-55
2021/03/06 00:32:48;;;;;;;10.13;2.80;;;;;;;;;;5092950;28;20028;-55
2021/03/06 00:35:16;;;;;;;12.68;3.20;;;;;;;;;;5092864;28;20027;-55
2021/03/06 00:37:42;;;;;;;6.97;2.88;;;;;;;;;;5092781;28;20036;-55
2021/03/06 00:40:10;;;;;;;6.35;2.92;;;;;;;;;;5092737;28;20099;-55
2021/03/06 00:42:37;;;;;;;9.65;2.58;;;;;;;;;;5092801;28;20039;-55
2021/03/06 00:45:05;;;;;;;3.63;2.58;;;;;;;;;;5092761;28;20028;-55
2021/03/06 00:47:32;;;;;;;5.93;2.85;;;;;;;;;;5092522;28;20103;-55
2021/03/06 00:49:59;;;;;;;6.45;2.83;;;;;;;;;;5092695;28;20027;-55
2021/03/06 00:52:26;;;;;;;5.95;2.90;;;;;;;;;;5092636;28;20111;-55
2021/03/06 00:54:53;;;;;;;4.77;2.67;;;;;;;;;;5092685;28;20129;-55
2021/03/06 00:57:19;;;;;;;4.53;2.97;;;;;;;;;;5092577;28;20115;-55
2021/03/06 00:59:46;;;;;;;5.70;3.10;;;;;;;;;;5092450;28;20036;-55
2021/03/06 01:02:13;;;;;;;6.40;3.20;;;;;;;;;;5092572;28;20022;-55
2021/03/06 01:04:40;;;;;;;5.93;2.90;;;;;;;;;;5092489;28;20031;-55
2021/03/06 01:07:06;;;;;;;6.37;3.03;;;;;;;;;;5092588;28;20024;-55
2021/03/06 01:09:33;;;;;;;7.47;2.83;;;;;;;;;;5092615;28;20031;-55
2021/03/06 01:12:00;;;;;;;7.63;2.90;;;;;;;;;;5092539;28;20024;-55
2021/03/06 01:14:27;;;;;;;5.30;3.63;;;;;;;;;;5092599;28;20376;-55
2021/03/06 01:16:53;;;;;;;4.47;3.07;;;;;;;;;;5092600;28;20051;-55
2021/03/06 01:19:20;;;;;;;8.20;3.30;;;;;;;;;;5092452;28;20032;-55
2021/03/06 01:21:47;;;;;;;6.87;3.57;;;;;;;;;;5095549;28;20024;-55
2021/03/06 01:24:14;;;;;;;8.20;3.77;;;;;;;;;;5096183;28;20024;-55
2021/03/06 01:26:42;;;;;;;9.93;3.47;;;;;;;;;;5095921;28;20121;-55
2021/03/06 01:29:08;;;;;;;7.87;3.90;;;;;;;;;;5096116;28;20027;-55
2021/03/06 01:31:35;;;;;;;6.50;4.33;;;;;;;;;;5096619;28;20162;-55
2021/03/06 01:34:02;;;;;;;12.53;4.47;;;;;;;;;;5096258;28;20029;-55
2021/03/06 01:36:29;;;;;;;10.83;4.10;;;;;;;;;;5095957;28;20037;-55
2021/03/06 01:38:56;;;;;;;9.00;4.17;;;;;;;;;;5095696;28;20036;-55
2021/03/06 01:41:22;;;;;;;8.00;4.67;;;;;;;;;;5095912;28;20102;-55
2021/03/06 01:43:49;;;;;;;8.47;4.70;;;;;;;;;;5095788;28;20286;-55
2021/03/06 01:46:16;;;;;;;7.07;5.20;;;;;;;;;;5095761;28;20032;-55
2021/03/06 01:48:43;;;;;;;13.27;5.10;;;;;;;;;;5095639;28;20024;-55
2021/03/06 01:51:09;;;;;;;44.00;7.37;;;;;;;;;;5095629;28;20020;-55
2021/03/06 01:53:36;;;;;;;7.23;4.93;;;;;;;;;;5095879;28;20040;-55
2021/03/06 01:56:03;;;;;;;8.67;5.20;;;;;;;;;;5095604;28;20056;-55
2021/03/06 01:58:30;;;;;;;8.33;5.17;;;;;;;;;;5095529;28;20482;-55
2021/03/06 02:00:57;;;;;;;7.80;5.30;;;;;;;;;;5095485;28;20024;-55
2021/03/06 02:03:23;;;;;;;9.17;5.17;;;;;;;;;;5095451;28;20084;-55
2021/03/06 02:05:50;;;;;;;7.67;5.50;;;;;;;;;;5095348;28;20028;-55
2021/03/06 02:08:17;;;;;;;6.83;5.40;;;;;;;;;;5095215;28;20466;-55
2021/03/06 02:10:44;;;;;;;8.67;5.20;;;;;;;;;;5095282;28;20028;-55
2021/03/06 02:13:17;;;;;;;12.53;6.20;;;;;;;;;;5095198;28;20039;-55
2021/03/06 02:15:50;;;;;;;9.87;5.70;;;;;;;;;;5095155;28;20024;-55
2021/03/06 02:18:29;;;;;;;7.43;5.60;;;;;;;;;;5095092;28;20043;-54
2021/03/06 02:21:08;;;;;;;11.80;5.33;;;;;;;;;;5094938;28;20039;-55
2021/03/06 02:23:47;;;;;;;6.73;5.13;;;;;;;;;;5095014;28;20496;-55
2021/03/06 02:26:26;;;;;;;7.60;5.57;;;;;;;;;;5094935;28;20079;-55
2021/03/06 02:29:08;;;;;;;10.20;5.63;;;;;;;;;;5094905;28;20024;-55
2021/03/06 02:31:36;;;;;;;8.37;5.47;;;;;;;;;;5095108;28;20079;-55
2021/03/06 02:34:05;;;;;;;10.23;5.70;;;;;;;;;;5094821;28;20028;-55
2021/03/06 02:36:37;;;;;;;9.73;5.73;;;;;;;;;;5094808;28;20055;-55
2021/03/06 02:39:05;;;;;;;8.03;5.23;;;;;;;;;;5094727;28;20040;-55
2021/03/06 02:41:33;;;;;;;10.60;5.33;;;;;;;;;;5094735;28;20047;-55
2021/03/06 02:44:02;;;;;;;11.80;5.53;;;;;;;;;;5094692;28;20035;-55
2021/03/06 02:46:29;;;;;;;12.53;5.90;;;;;;;;;;5094558;28;20024;-55
2021/03/06 02:48:56;;;;;;;18.50;6.33;;;;;;;;;;5094582;28;20024;-55
2021/03/06 02:51:23;;;;;;;9.03;5.93;;;;;;;;;;5094473;28;20016;-55
2021/03/06 02:53:50;;;;;;;10.80;6.10;;;;;;;;;;5094479;28;20027;-55
2021/03/06 02:56:17;;;;;;;9.20;6.13;;;;;;;;;;5094616;28;20099;-55
2021/03/06 02:58:44;;;;;;;8.17;5.60;;;;;;;;;;5094288;28;20028;-55
2021/03/06 03:01:13;;;;;;;8.40;5.70;;;;;;;;;;5094590;28;20024;-55
2021/03/06 03:03:55;;;;;;;10.80;6.00;;;;;;;;;;5094296;28;20035;-55
2021/03/06 03:06:22;;;;;;;9.93;6.00;;;;;;;;;;5094153;28;20024;-55
2021/03/06 03:09:08;;;;;;;8.53;5.53;;;;;;;;;;5094170;28;20024;-55
2021/03/06 03:11:39;;;;;;;7.47;5.83;;;;;;;;;;5094133;28;20027;-55
2021/03/06 03:14:07;;;;;;;12.87;6.47;;;;;;;;;;5094078;28;20020;-55
2021/03/06 03:16:45;;;;;;;12.17;6.53;;;;;;;;;;5094067;28;20020;-55
2021/03/06 03:19:27;;;;;;;13.27;6.70;;;;;;;;;;5093937;28;20078;-55
2021/03/06 03:21:54;;;;;;;11.70;6.27;;;;;;;;;;5094014;28;20459;-54
2021/03/06 03:24:22;;;;;;;13.87;7.13;;;;;;;;;;5093849;28;20490;-55
2021/03/06 03:26:49;;;;;;;11.40;6.33;;;;;;;;;;5093597;28;20046;-55
2021/03/06 03:29:17;;;;;;;8.10;6.30;;;;;;;;;;5093627;28;20055;-54
2021/03/06 03:31:47;;;;;;;8.63;5.30;;;;;;;;;;5094747;27;20494;-54
2021/03/06 03:34:15;;;;;;;16.77;5.73;;;;;;;;;;5093680;28;20028;-54
2021/03/06 03:36:43;;;;;;;12.17;6.53;;;;;;;;;;5093539;28;20054;-54
2021/03/06 03:39:10;;;;;;;15.20;6.67;;;;;;;;;;5093557;28;20039;-55
2021/03/06 03:41:37;;;;;;;14.03;7.07;;;;;;;;;;5093479;28;20028;-55
2021/03/06 03:44:05;;;;;;;9.70;5.63;;;;;;;;;;5092943;28;20036;-54
2021/03/06 03:46:33;;;;;;;9.03;4.87;;;;;;;;;;5093308;28;20030;-54
2021/03/06 03:49:01;;;;;;;10.83;4.97;;;;;;;;;;5093448;28;20020;-54
2021/03/06 03:51:28;;;;;;;9.43;4.27;;;;;;;;;;5093481;28;20020;-54
2021/03/06 03:53:55;;;;;;;8.17;4.20;;;;;;;;;;5093392;28;20027;-54
2021/03/06 03:56:22;;;;;;;9.80;4.30;;;;;;;;;;5093220;28;20028;-54
2021/03/06 03:58:49;;;;;;;8.13;4.43;;;;;;;;;;5093164;28;20035;-54
2021/03/06 04:01:16;;;;;;;10.87;3.83;;;;;;;;;;5093366;28;20024;-54
2021/03/06 04:03:43;;;;;;;5.27;3.47;;;;;;;;;;5093247;28;20024;-54
2021/03/06 04:06:10;;;;;;;5.13;3.50;;;;;;;;;;5093054;28;20028;-54
2021/03/06 04:08:36;;;;;;;6.93;3.40;;;;;;;;;;5093253;28;20032;-54
2021/03/06 04:11:03;;;;;;;7.77;3.30;;;;;;;;;;5093072;28;20052;-54
2021/03/06 04:13:30;;;;;;;5.30;3.00;;;;;;;;;;5092948;28;20541;-54
2021/03/06 04:15:57;;;;;;;7.13;2.90;;;;;;;;;;5093077;28;20091;-54
2021/03/06 04:18:23;;;;;;;6.90;3.30;;;;;;;;;;5092965;28;20429;-54
2021/03/06 04:20:50;;;;;;;6.50;3.33;;;;;;;;;;5093120;28;20027;-54
2021/03/06 04:23:17;;;;;;;5.10;3.10;;;;;;;;;;5092828;28;20103;-54
2021/03/06 04:25:44;;;;;;;6.57;2.40;;;;;;;;;;5092945;28;20476;-54
2021/03/06 04:28:11;;;;;;;5.13;2.30;;;;;;;;;;5092989;28;20027;-54
2021/03/06 04:30:38;;;;;;;5.57;2.40;;;;;;;;;;5093467;28;20045;-54
2021/03/06 04:33:05;;;;;;;5.37;2.20;;;;;;;;;;5093015;28;20155;-54
2021/03/06 04:35:31;;;;;;;4.23;1.93;;;;;;;;;;5092872;28;20024;-54
2021/03/06 04:37:58;;;;;;;9.50;2.37;;;;;;;;;;5092690;28;20399;-54
2021/03/06 04:40:25;;;;;;;4.40;2.10;;;;;;;;;;5092950;28;20378;-54
2021/03/06 04:42:52;;;;;;;3.03;1.90;;;;;;;;;;5092847;28;20030;-54
2021/03/06 04:45:19;;;;;;;4.37;1.70;;;;;;;;;;5092794;28;20081;-54
2021/03/06 04:47:46;;;;;;;3.53;2.10;;;;;;;;;;5092810;28;20120;-54
2021/03/06 04:50:13;;;;;;;5.07;2.10;;;;;;;;;;5092797;28;20104;-54
2021/03/06 04:52:40;;;;;;;5.30;2.40;;;;;;;;;;5092775;28;20024;-54
2021/03/06 04:55:07;;;;;;;5.10;2.20;;;;;;;;;;5094875;28;20032;-54
2021/03/06 04:57:34;;;;;;;3.30;2.10;;;;;;;;;;5096624;28;20401;-54
2021/03/06 05:00:01;;;;;;;4.77;2.10;;;;;;;;;;5096666;28;20027;-54
2021/03/06 05:02:28;;;;;;;6.30;2.30;;;;;;;;;;5096609;28;20024;-54
2021/03/06 05:04:57;;;;;;;5.53;2.10;;;;;;;;;;5096454;28;20028;-54
2021/03/06 05:07:23;;;;;;;6.10;2.33;;;;;;;;;;5096585;28;20124;-54
2021/03/06 05:09:50;;;;;;;6.63;2.30;;;;;;;;;;5096448;28;20367;-54
2021/03/06 05:12:17;;;;;;;6.27;2.43;;;;;;;;;;5096292;28;20111;-54
2021/03/06 05:14:44;;;;;;;4.73;2.00;;;;;;;;;;5096345;28;20020;-54
2021/03/06 05:17:11;;;;;;;4.50;2.30;;;;;;;;;;5096283;28;20073;-54
2021/03/06 05:19:37;;;;;;;5.67;2.30;;;;;;;;;;5096300;28;20020;-54
2021/03/06 05:22:04;;;;;;;6.33;3.33;;;;;;;;;;5096244;28;20052;-54
2021/03/06 05:24:31;;;;;;;8.70;2.90;;;;;;;;;;5096232;28;20020;-54
2021/03/06 05:27:03;;;;;;;4.43;2.50;;;;;;;;;;5096112;28;20489;-53
2021/03/06 05:29:33;;;;;;;4.90;2.10;;;;;;;;;;5079050;28;20020;-54
2021/03/06 05:32:00;;;;;;;5.67;2.03;;;;;;;;;;5096971;27;20567;-54
2021/03/06 05:34:27;;;;;;;4.13;2.30;;;;;;;;;;5095902;28;20024;-54
2021/03/06 05:36:54;;;;;;;4.07;1.97;;;;;;;;;;5096094;28;20536;-54
2021/03/06 05:39:21;;;;;;;4.57;1.93;;;;;;;;;;5095758;28;20405;-54
2021/03/06 05:41:48;;;;;;;4.17;2.30;;;;;;;;;;5095859;28;20023;-54
2021/03/06 05:44:15;;;;;;;4.13;1.93;;;;;;;;;;5095690;28;20020;-53
2021/03/06 05:46:43;;;;;;;3.47;1.93;;;;;;;;;;5095608;28;20099;-54
2021/03/06 05:49:10;;;;;;;3.03;1.70;;;;;;;;;;5095734;28;20043;-54
2021/03/06 05:51:37;;;;;;;3.33;1.83;;;;;;;;;;5095705;28;20039;-54
2021/03/06 05:54:09;;;;;;;4.40;2.07;;;;;;;;;;5095716;28;20475;-54
2021/03/06 05:56:38;;;;;;;3.10;1.73;;;;;;;;;;5095587;28;20020;-54
2021/03/06 05:59:05;;;;;;;3.50;2.30;;;;;;;;;;5095452;28;20032;-53
2021/03/06 06:01:32;;;;;;;5.73;2.00;;;;;;;;;;5077316;28;20051;-53
2021/03/06 06:04:01;;;;;;;3.93;1.93;;;;;;;;;;5095283;28;20115;-53
2021/03/06 06:06:29;;;;;;;3.30;2.10;;;;;;;;;;5076532;28;20417;-53
2021/03/06 06:09:03;;;;;;;14.33;2.87;;;;;;;;;;5095345;28;20390;-53
2021/03/06 06:11:30;;;;;;;5.17;2.80;;;;;;;;;;5095393;28;20031;-53
2021/03/06 06:13:57;;;;;;;7.67;2.47;;;;;;;;;;5095293;28;20025;-53
2021/03/06 06:16:24;;;;;;;3.63;2.10;;;;;;;;;;5094896;28;20387;-54
2021/03/06 06:18:51;;;;;;;7.73;2.77;;;;;;;;;;5094675;28;20421;-53
2021/03/06 06:21:56;;;;;;;6.03;3.20;;;;;;;;;;5094768;28;20486;-53
2021/03/06 06:24:23;;;;;;;6.23;2.53;;;;;;;;;;5012535;28;20050;-53
2021/03/06 06:26:54;;;;;;;6.40;3.10;;;;;;;;;;5012668;28;20038;-53
2021/03/06 06:29:40;;;;;;;5.60;2.90;;;;;;;;;;5055034;28;20032;-54
2021/03/06 06:32:08;;;;;;;6.70;2.83;;;;;;;;;;5095860;27;20056;-54
2021/03/06 06:34:36;;;;;;;6.37;3.10;;;;;;;;;;5094893;28;20031;-53
2021/03/06 06:37:10;;;;;;;12.07;3.10;;;;;;;;;;5094570;28;20425;-54
2021/03/06 06:39:37;;;;;;;6.90;2.67;;;;;;;;;;5094773;28;20107;-53
2021/03/06 06:42:04;;;;;;;5.53;2.80;;;;;;;;;;5094787;28;20058;-53
2021/03/06 06:44:31;;;;;;;5.73;2.70;;;;;;;;;;5094705;28;20103;-53
2021/03/06 06:46:58;;;;;;;11.33;2.97;;;;;;;;;;5094461;28;20382;-53
2021/03/06 06:49:26;;;;;;;5.30;2.50;;;;;;;;;;5094533;28;20414;-53
2021/03/06 06:52:06;;;;;;;4.03;2.23;;;;;;;;;;5094592;28;20024;-53
2021/03/06 06:54:34;;;;;;;6.40;2.80;;;;;;;;;;5094516;28;20062;-53
2021/03/06 06:57:10;;;;;;;6.17;2.83;;;;;;;;;;5094403;28;20059;-53
2021/03/06 06:59:38;;;;;;;9.00;2.97;;;;;;;;;;5094431;28;20016;-53
2021/03/06 07:02:07;;;;;;;5.67;3.13;;;;;;;;;;5094431;28;20024;-53
2021/03/06 07:04:53;;;;;;;3.60;2.13;;;;;;;;;;5094256;28;20039;-53
2021/03/06 07:07:20;;;;;;;5.87;2.40;;;;;;;;;;5094113;28;20096;-53
2021/03/06 07:10:10;;;;;;;3.33;2.30;;;;;;;;;;5094119;28;20028;-53
2021/03/06 07:12:39;;;;;;;6.30;2.43;;;;;;;;;;5083973;28;20471;-53
2021/03/06 07:15:13;;;;;;;4.27;2.43;;;;;;;;;;5093994;28;20430;-53
2021/03/06 07:17:41;;;;;;;5.28;2.55;;;;;;;;;;5093296;28;20162;-53
2021/03/06 07:20:10;;;;;;;6.77;3.20;;;;;;;;;;5093815;28;20446;-53
2021/03/06 07:22:37;;;;;;;5.60;3.13;;;;;;;;;;5094027;28;20378;-53
2021/03/06 07:25:04;;;;;;;8.23;2.73;;;;;;;;;;5093678;28;20024;-53
2021/03/06 07:27:31;;;;;;;7.33;2.87;;;;;;;;;;5094449;28;20067;-53
2021/03/06 07:29:58;;;;;;;7.37;3.00;;;;;;;;;;5093817;28;20031;-53
2021/03/06 07:32:31;;;;;;;4.97;2.93;;;;;;;;;;5093378;28;20040;-53
2021/03/06 07:35:05;;;;;;;6.00;3.20;;;;;;;;;;5093750;28;20107;-53
2021/03/06 07:37:32;;;;;;;5.37;3.30;;;;;;;;;;5093672;28;20028;-53
2021/03/06 07:40:00;;;;;;;5.27;3.07;;;;;;;;;;5093638;28;20048;-53
2021/03/06 07:42:30;;;;;;;4.60;2.83;;;;;;;;;;5093516;28;20016;-53
2021/03/06 07:44:57;;;;;;;6.77;2.97;;;;;;;;;;5093541;28;20429;-53
2021/03/06 07:47:28;;;;;;;6.40;3.10;;;;;;;;;;5093557;28;20046;-53
2021/03/06 07:49:57;;;;;;;5.03;3.43;;;;;;;;;;5093347;28;20027;-53
2021/03/06 07:52:25;;;;;;;7.53;3.60;;;;;;;;;;5093345;28;20024;-53
2021/03/06 07:54:52;;;;;;;8.17;4.50;;;;;;;;;;5093254;28;20128;-53
2021/03/06 07:57:18;;;;;;;5.90;2.93;;;;;;;;;;5093159;28;20202;-53
2021/03/06 07:59:45;;;;;;;6.10;3.47;;;;;;;;;;5093227;28;20351;-53
2021/03/06 08:02:30;;;;;;;5.47;3.43;;;;;;;;;;5093337;28;20052;-53
2021/03/06 08:04:57;;;;;;;6.53;4.00;;;;;;;;;;5093288;28;20138;-53
2021/03/06 08:07:47;;;;;;;8.33;4.00;;;;;;;;;;5093306;28;20027;-53
2021/03/06 08:10:14;;;;;;;9.57;3.40;;;;;;;;;;5093203;28;20016;-53
2021/03/06 08:12:41;;;;;;;5.83;3.30;;;;;;;;;;5093112;28;20436;-53
2021/03/06 08:15:20;;;;;;;7.80;3.57;;;;;;;;;;5093165;28;20027;-53
2021/03/06 08:17:47;;;;;;;8.80;3.63;;;;;;;;;;5093073;28;20085;-53
2021/03/06 08:20:23;;;;;;;6.83;3.00;;;;;;;;;;5092882;28;20431;-53
2021/03/06 08:23:08;;;;;;;6.87;4.17;;;;;;;;;;5093005;28;20077;-53
2021/03/06 08:25:35;;;;;;;8.43;4.03;;;;;;;;;;5092800;28;20028;-53
2021/03/06 08:28:34;;;;;;;7.83;3.90;;;;;;;;;;5093181;28;20032;-53
2021/03/06 08:31:27;;;;;;;7.83;3.63;;;;;;;;;;5049263;28;20131;-53
2021/03/06 08:34:13;;;;;;;6.77;3.90;;;;;;;;;;5092825;28;20085;-53
2021/03/06 08:36:40;;;;;;;6.47;4.07;;;;;;;;;;5092588;28;20028;-53
2021/03/06 08:39:07;;;;;;;5.93;3.60;;;;;;;;;;5092839;28;20040;-53
2021/03/06 08:41:34;;;;;;;8.33;4.10;;;;;;;;;;5074607;28;20554;-53
2021/03/06 08:44:00;;;;;;;6.97;4.13;;;;;;;;;;5092818;28;20750;-53
2021/03/06 08:46:27;;;;;;;6.07;3.40;;;;;;;;;;5092742;28;20540;-53
2021/03/06 08:48:54;;;;;;;6.50;3.70;;;;;;;;;;5092738;28;20067;-53
2021/03/06 08:51:21;;;;;;;7.87;3.97;;;;;;;;;;5092704;28;20086;-53
2021/03/06 08:53:57;;;;;;;8.60;3.60;;;;;;;;;;5092754;28;20024;-53
2021/03/06 08:56:24;;;;;;;7.37;3.73;;;;;;;;;;5092907;28;20051;-53
2021/03/06 08:58:51;;;;;;;6.70;3.40;;;;;;;;;;5092585;28;20082;-53
2021/03/06 09:01:17;;;;;;;6.93;3.63;;;;;;;;;;5092665;28;20028;-53
2021/03/06 09:03:49;;;;;;;6.77;3.87;;;;;;;;;;5092552;28;20032;-53
2021/03/06 09:06:16;;;;;;;6.57;3.67;;;;;;;;;;5092567;28;20245;-53
2021/03/06 09:08:42;;;;;;;7.70;4.10;;;;;;;;;;5092547;28;20107;-53
2021/03/06 09:11:09;;;;;;;5.33;3.27;;;;;;;;;;5092519;28;20245;-53
2021/03/06 09:13:36;;;;;;;8.87;4.30;;;;;;;;;;5092632;28;20028;-53
2021/03/06 09:16:04;;;;;;;6.10;3.43;;;;;;;;;;5092491;28;20240;-53
2021/03/06 09:18:33;;;;;;;8.27;3.90;;;;;;;;;;5092437;28;20043;-53
2021/03/06 09:21:02;;;;;;;5.93;3.43;;;;;;;;;;5092477;28;20020;-53
2021/03/06 09:23:34;;;;;;;7.10;3.23;;;;;;;;;;5092776;28;20249;-53
2021/03/06 09:26:13;;;;;;;8.10;3.90;;;;;;;;;;5092236;28;20279;-53
2021/03/06 09:28:39;;;;;;;7.63;4.23;;;;;;;;;;5092461;28;20261;-53
2021/03/06 09:31:16;;;;;;;6.73;4.13;;;;;;;;;;5092924;28;20289;-53
2021/03/06 09:33:44;;;;;;;6.93;3.87;;;;;;;;;;5092327;28;20731;-53
2021/03/06 09:36:14;;;;;;;6.73;3.93;;;;;;;;;;5092156;28;20765;-53
2021/03/06 09:38:48;;;;;;;6.33;4.10;;;;;;;;;;5092249;28;20770;-53
2021/03/06 09:41:17;;;;;;;6.63;4.37;;;;;;;;;;5093076;28;20253;-53
2021/03/06 09:43:45;;;;;;;7.43;4.00;;;;;;;;;;5095813;28;20024;-53
2021/03/06 09:46:13;;;;;;;8.13;4.03;;;;;;;;;;5095830;28;20251;-53
2021/03/06 09:48:47;;;;;;;9.07;4.13;;;;;;;;;;5095800;28;20249;-53
2021/03/06 09:51:14;;;;;;;10.35;4.85;;;;;;;;;;5095754;28;20253;-53
2021/03/06 09:53:41;;;;;;;7.63;4.50;;;;;;;;;;5095575;28;20032;-53
2021/03/06 09:56:12;;;;;;;9.20;3.93;;;;;;;;;;5095539;28;20261;-53
2021/03/06 09:58:40;;;;;;;7.50;4.27;;;;;;;;;;5095603;28;20285;-53
2021/03/06 10:01:18;;;;;;;6.40;4.37;;;;;;;;;;5095560;28;20738;-53
2021/03/06 10:03:46;;;;;;;9.10;4.47;;;;;;;;;;5095526;28;20306;-53
2021/03/06 10:06:14;;;;;;;6.63;3.77;;;;;;;;;;5095421;28;20332;-53
2021/03/06 10:08:50;;;;;;;7.87;4.67;;;;;;;;;;5095266;28;20264;-53
2021/03/06 10:11:17;;;;;;;9.30;4.50;;;;;;;;;;5095343;28;20751;-53
2021/03/06 10:13:45;;;;;;;10.13;5.00;;;;;;;;;;5095252;28;20249;-53
2021/03/06 10:16:12;;;;;;;7.13;4.43;;;;;;;;;;5095104;28;20249;-53
2021/03/06 10:18:39;;;;;;;9.67;3.93;;;;;;;;;;5095184;28;20280;-53
2021/03/06 10:21:10;;;;;;;6.20;4.20;;;;;;;;;;5095204;28;20249;-53
2021/03/06 10:23:37;;;;;;;8.27;4.80;;;;;;;;;;5095052;28;20706;-53
2021/03/06 10:26:20;;;;;;;7.77;4.20;;;;;;;;;;5094934;28;20310;-53
2021/03/06 10:28:48;;;;;;;6.80;4.17;;;;;;;;;;5094938;28;20305;-53
2021/03/06 10:31:30;;;;;;;13.80;4.60;;;;;;;;;;5095592;28;20790;-53
2021/03/06 10:33:58;;;;;;;12.47;4.47;;;;;;;;;;5094769;28;20285;-53
2021/03/06 10:36:25;;;;;;;8.57;4.70;;;;;;;;;;5094710;28;20241;-53
2021/03/06 10:39:11;;;;;;;7.67;4.40;;;;;;;;;;5094629;28;20283;-53
2021/03/06 10:41:38;;;;;;;8.93;4.87;;;;;;;;;;5094780;28;20271;-53
2021/03/06 10:44:05;;;;;;;7.60;4.83;;;;;;;;;;5094657;28;20539;-53
2021/03/06 10:46:32;;;;;;;7.40;4.60;;;;;;;;;;5094681;28;20749;-53
2021/03/06 10:49:00;;;;;;;7.77;4.73;;;;;;;;;;5094599;28;20256;-53
2021/03/06 10:51:49;;;;;;;8.87;4.73;;;;;;;;;;5094545;28;20611;-53
2021/03/06 10:54:16;;;;;;;7.17;4.90;;;;;;;;;;5082162;28;20253;-53
2021/03/06 10:56:43;;;;;;;7.10;4.37;;;;;;;;;;5094544;28;20458;-53
2021/03/06 10:59:10;;;;;;;6.10;4.40;;;;;;;;;;5094286;28;20289;-53
2021/03/06 11:01:53;;;;;;;8.57;5.23;;;;;;;;;;5094297;28;20314;-53
2021/03/06 11:04:27;;;;;;;7.30;4.67;;;;;;;;;;5094299;28;20253;-53
2021/03/06 11:06:55;;;;;;;7.17;4.60;;;;;;;;;;5094409;28;20267;-53
2021/03/06 11:09:24;;;;;;;10.40;4.97;;;;;;;;;;5094106;28;20255;-53
2021/03/06 11:11:51;;;;;;;8.33;5.00;;;;;;;;;;5094225;28;20680;-53
2021/03/06 11:14:27;;;;;;;10.17;5.00;;;;;;;;;;5094006;28;20253;-53
2021/03/06 11:16:55;;;;;;;6.43;4.20;;;;;;;;;;5094441;28;20252;-53
2021/03/06 11:19:22;;;;;;;7.30;4.87;;;;;;;;;;5093801;28;20296;-53
2021/03/06 11:21:48;;;;;;;7.87;4.97;;;;;;;;;;5094068;28;20253;-53
2021/03/06 11:24:15;;;;;;;7.43;4.07;;;;;;;;;;5093889;28;20256;-53
2021/03/06 11:26:42;;;;;;;6.63;3.90;;;;;;;;;;5093873;28;20248;-53
2021/03/06 11:29:09;;;;;;;6.47;4.23;;;;;;;;;;5093852;28;20264;-53
2021/03/06 11:31:37;;;;;;;7.07;4.10;;;;;;;;;;5094293;28;20277;-53
2021/03/06 11:34:04;;;;;;;7.23;4.57;;;;;;;;;;5093799;28;20257;-53
2021/03/06 11:36:31;;;;;;;7.70;4.27;;;;;;;;;;5093711;28;20278;-53
2021/03/06 11:38:58;;;;;;;8.07;3.97;;;;;;;;;;5093557;28;20631;-53
2021/03/06 11:41:25;;;;;;;9.83;4.03;;;;;;;;;;5094043;28;20642;-53
2021/03/06 11:43:51;;;;;;;10.37;3.93;;;;;;;;;;5093577;28;20257;-53
2021/03/06 11:46:18;;;;;;;7.27;4.20;;;;;;;;;;5093452;28;20252;-53
2021/03/06 11:48:45;;;;;;;10.63;4.50;;;;;;;;;;5093421;28;20344;-53
2021/03/06 11:51:12;;;;;;;6.67;4.13;;;;;;;;;;5093568;28;20253;-53
2021/03/06 11:53:39;;;;;;;11.43;4.87;;;;;;;;;;5093466;28;20343;-53
2021/03/06 11:56:06;;;;;;;10.33;5.10;;;;;;;;;;5093331;28;20261;-53
2021/03/06 11:58:32;;;;;;;7.70;4.90;;;;;;;;;;5093323;28;20316;-53
2021/03/06 12:00:59;;;;;;;7.77;4.27;;;;;;;;;;5093307;28;20315;-53
2021/03/06 12:03:26;;;;;;;8.03;4.33;;;;;;;;;;5093145;28;20257;-53
2021/03/06 12:05:53;;;;;;;10.47;5.03;;;;;;;;;;5092882;28;20306;-53
2021/03/06 12:08:19;;;;;;;8.43;4.80;;;;;;;;;;5093254;28;20288;-53
2021/03/06 12:10:46;;;;;;;19.53;5.00;;;;;;;;;;5093142;28;20256;-53
2021/03/06 12:13:13;;;;;;;9.27;4.77;;;;;;;;;;5093059;28;20279;-53
2021/03/06 12:15:40;;;;;;;8.20;4.93;;;;;;;;;;5093156;28;20240;-53
2021/03/06 12:18:07;;;;;;;9.73;5.93;;;;;;;;;;5093008;28;20326;-53
2021/03/06 12:20:33;;;;;;;7.50;4.30;;;;;;;;;;5093049;28;20256;-53
2021/03/06 12:23:00;;;;;;;17.20;6.17;;;;;;;;;;5093037;28;20245;-53
2021/03/06 12:25:27;;;;;;;10.13;5.77;;;;;;;;;;5092795;28;20596;-53
2021/03/06 12:27:54;;;;;;;8.50;5.00;;;;;;;;;;5092986;28;20323;-53
2021/03/06 12:30:21;;;;;;;11.80;4.90;;;;;;;;;;5092986;28;20248;-53
2021/03/06 12:32:49;;;;;;;11.47;5.60;;;;;;;;;;5093374;28;20280;-53
2021/03/06 12:35:16;;;;;;;8.50;4.60;;;;;;;;;;5092902;28;20332;-53
2021/03/06 12:37:43;;;;;;;11.93;4.80;;;;;;;;;;5092724;28;20316;-53
2021/03/06 12:40:10;;;;;;;10.13;5.00;;;;;;;;;;5092792;28;20607;-53
2021/03/06 12:42:38;;;;;;;10.80;5.43;;;;;;;;;;5092811;28;20295;-53
2021/03/06 12:45:06;;;;;;;12.57;5.47;;;;;;;;;;5092808;28;20256;-53
2021/03/06 12:47:32;;;;;;;9.47;5.23;;;;;;;;;;5092718;28;20253;-53
2021/03/06 12:49:59;;;;;;;15.13;5.70;;;;;;;;;;5092704;28;20620;-53
2021/03/06 12:52:26;;;;;;;14.20;5.80;;;;;;;;;;5092859;28;20303;-53
2021/03/06 12:55:00;;;;;;;9.13;6.17;;;;;;;;;;5092640;28;20739;-53
2021/03/06 12:57:27;;;;;;;10.77;5.40;;;;;;;;;;5092467;28;20269;-53
2021/03/06 12:59:53;;;;;;;14.77;6.60;;;;;;;;;;5092857;28;20260;-53
2021/03/06 13:02:20;;;;;;;12.60;6.00;;;;;;;;;;5092683;28;20331;-52
2021/03/06 13:04:47;;;;;;;11.47;6.60;;;;;;;;;;5092609;28;20269;-53
2021/03/06 13:07:14;;;;;;;13.23;6.37;;;;;;;;;;5092599;28;20326;-53
2021/03/06 13:09:40;;;;;;;10.37;6.00;;;;;;;;;;5092626;28;20252;-53
2021/03/06 13:12:07;;;;;;;12.43;6.17;;;;;;;;;;5092469;28;20332;-53
2021/03/06 13:14:34;;;;;;;10.23;5.77;;;;;;;;;;5092522;28;20735;-53
2021/03/06 13:17:01;;;;;;;9.40;5.97;;;;;;;;;;5094416;28;20738;-53
2021/03/06 13:19:28;;;;;;;11.73;7.17;;;;;;;;;;5096165;28;20763;-53
2021/03/06 13:21:54;;;;;;;12.90;6.43;;;;;;;;;;5096343;28;20249;-53
2021/03/06 13:24:21;;;;;;;13.80;7.30;;;;;;;;;;5096121;28;20252;-53
2021/03/06 13:26:48;;;;;;;13.07;7.47;;;;;;;;;;5096204;28;20253;-53
2021/03/06 13:29:16;;;;;;;17.03;6.50;;;;;;;;;;5096134;28;20253;-53
2021/03/06 13:31:43;;;;;;;16.07;7.20;;;;;;;;;;5097030;28;20608;-53
2021/03/06 13:34:10;;;;;;;31.23;8.17;;;;;;;;;;5095894;28;20253;-53
2021/03/06 13:36:37;;;;;;;17.37;9.10;;;;;;;;;;5095939;28;20252;-53
2021/03/06 13:39:04;;;;;;;15.50;9.67;;;;;;;;;;5095954;28;20295;-53
2021/03/06 13:41:31;;;;;;;13.23;7.63;;;;;;;;;;5096081;28;20282;-53
2021/03/06 13:43:58;;;;;;;10.73;7.77;;;;;;;;;;5095782;28;20252;-53
2021/03/06 13:46:25;;;;;;;14.70;7.13;;;;;;;;;;5095892;28;20284;-53
2021/03/06 13:48:52;;;;;;;11.40;7.00;;;;;;;;;;5095805;28;20264;-53
2021/03/06 13:51:18;;;;;;;11.67;6.87;;;;;;;;;;5095737;28;20341;-53
2021/03/06 13:53:45;;;;;;;11.13;7.87;;;;;;;;;;5095645;28;20299;-53
2021/03/06 13:56:12;;;;;;;12.23;6.83;;;;;;;;;;5095527;28;20251;-53
2021/03/06 13:58:39;;;;;;;12.20;7.53;;;;;;;;;;5095493;28;20710;-53
2021/03/06 14:01:06;;;;;;;11.73;6.47;;;;;;;;;;5095491;28;20650;-53
2021/03/06 14:03:32;;;;;;;14.03;7.57;;;;;;;;;;5095487;28;20303;-53
2021/03/06 14:05:59;;;;;;;14.13;8.33;;;;;;;;;;5095488;28;20259;-53
2021/03/06 14:08:26;;;;;;;17.17;7.80;;;;;;;;;;5095527;28;20249;-53
2021/03/06 14:10:53;;;;;;;17.47;7.73;;;;;;;;;;5095292;28;20107;-53
2021/03/06 14:13:19;;;;;;;15.60;8.03;;;;;;;;;;5095415;28;20024;-53
2021/03/06 14:15:46;;;;;;;14.57;8.17;;;;;;;;;;5095321;28;20024;-53
2021/03/06 14:18:13;;;;;;;19.93;8.57;;;;;;;;;;5095537;28;20032;-54
2021/03/06 14:20:41;;;;;;;20.57;8.30;;;;;;;;;;5095237;28;20032;-54
2021/03/06 14:23:08;;;;;;;16.80;10.00;;;;;;;;;;5095083;28;20027;-54
2021/03/06 14:25:35;;;;;;;17.90;9.90;;;;;;;;;;5094920;28;20466;-54
2021/03/06 14:28:01;;;;;;;17.23;10.00;;;;;;;;;;5094478;28;20383;-54
2021/03/06 14:30:28;;;;;;;17.20;10.50;;;;;;;;;;5094902;28;20035;-54
2021/03/06 14:32:55;;;;;;;16.83;8.37;;;;;;;;;;5095878;27;20076;-54
2021/03/06 14:35:22;;;;;;;15.97;9.10;;;;;;;;;;5094939;28;20020;-54
2021/03/06 14:37:49;;;;;;;19.50;10.63;;;;;;;;;;5094754;28;20502;-54
2021/03/06 14:40:15;;;;;;;16.33;8.60;;;;;;;;;;5094793;28;20515;-54
2021/03/06 14:42:42;;;;;;;12.23;8.33;;;;;;;;;;5094725;28;20425;-54
2021/03/06 14:45:09;;;;;;;13.03;9.47;;;;;;;;;;5094582;28;20437;-54
2021/03/06 14:47:36;;;;;;;15.23;10.10;;;;;;;;;;5094652;28;20138;-54